Kamloops Airport
CYKA : now visible

Airfield :











YOU CAN JOIN US ON...

 
LOGIN :

Register | Disclaimer

   EN    FR    IT 

 









Legend :    VFR   Marginal VFR   IFR   Intensive IFR   Very Intensive IFR
Visi :
Ceiling :
>= 8 km
>= 3000ft
5 to 8 km
1000 to 3000 ft
1500m to 5 km
500 to 1000 ft
800 to 1500m
200 to 500 ft
< 800m
< 200 ft
Symbols :   Thunderstorms  Fog  Heavy snow  Heavy precipitations  Wind > 20 kt







- Airport Elevation : 1133 ft
- IATA code : YKA


CYKA - Kamloops

CURRENT METAR :
  • 221800Z 14002KT 40SM FEW080 BKN250 19/06 A2997 RMK AC1CI5 SLP150 DENSITY ALT 1900FT

EXPIRED METARs :
  • 221700Z 10003KT 080V150 40SM FEW060 FEW110 BKN250 17/06 A2998 RMK CU1AC1CI4 CU TR SLP156 DENSITY ALT 1600FT
  • 221600Z 10008KT 40SM SCT110 BKN250 16/05 A3000 RMK AC3CI4 SLP161 DENSITY ALT 1400FT

TAF TAF CYKA
Valid from the 22 at 19:00 until the 23 at 07:00 UTC


221838Z 2219/2307 29008KT P6SM SCT080
TEMPO 2219/2221 P6SM VCSH BKN080
FM222100 29010KT P6SM BKN080
TEMPO 2221/2303 P6SM -SHRA VCTS SCT060CB BKN080
FM230300 08005KT P6SM BKN080 RMK NXT FCST BY 230100Z
CZVR FIR / North America



MET'MAP, your aeronautical weather chart ! - Copyright ORBIFLY December 2007 - Disclaimer

ORBIFLY MET'MAP TEAM :

Programming & Development : Alexandra Zaïnal
Concept & Development : Baudouin d'Aumeries
Co-Development & Prog : Marc-Olivier Méhu
Technical & hardware support : Manuel Goepfert

Contact : metmap@orbifly.com




SOURCES & CREDITS :

   NOAA       Earth
Advisory